Time;durP1;ratioP1;P1;durP2;ratioP2;P2;SDS_P1;SDS_P2;PMS_P1;PMS_P2;Temp;Humidity;BMP_temperature;BMP_pressure;BME280_temperature;BME280_humidity;BME280_pressure;Samples;Min_cycle;Max_cycle;Signal;HPM_P1;HPM_P2
2022/10/20 00:00:59;;;;;;;12.07;4.20;;;7.40;99.90;;;;;;5038540;28;20036;-64
2022/10/20 00:03:26;;;;;;;10.63;4.57;;;7.40;99.90;;;;;;5021196;28;20041;-63
2022/10/20 00:05:53;;;;;;;10.23;4.63;;;7.40;99.90;;;;;;5041175;28;20044;-63
2022/10/20 00:08:19;;;;;;;7.65;4.20;;;7.30;99.90;;;;;;5021639;28;20048;-63
2022/10/20 00:10:55;;;;;;;7.28;3.95;;;7.30;99.90;;;;;;5029983;28;20389;-63
2022/10/20 00:13:21;;;;;;;8.05;4.32;;;7.30;99.90;;;;;;5042564;28;20041;-64
2022/10/20 00:15:52;;;;;;;11.27;4.63;;;7.30;99.90;;;;;;5026818;28;20044;-63
2022/10/20 00:18:18;;;;;;;12.65;4.20;;;7.20;99.90;;;;;;5042152;28;20037;-63
2022/10/20 00:20:44;;;;;;;10.98;4.10;;;7.20;99.90;;;;;;5047848;28;20041;-64
2022/10/20 00:23:10;;;;;;;8.45;4.57;;;7.10;99.90;;;;;;5026675;28;20055;-63
2022/10/20 00:25:35;;;;;;;9.07;4.30;;;7.00;99.90;;;;;;5012183;28;20516;-63
2022/10/20 00:28:01;;;;;;;9.10;4.90;;;7.00;99.90;;;;;;5044479;28;20041;-63
2022/10/20 00:30:27;;;;;;;12.57;4.75;;;7.00;99.90;;;;;;5027576;28;20182;-63
2022/10/20 00:32:52;;;;;;;11.27;4.82;;;7.00;99.90;;;;;;5047768;28;20372;-63
2022/10/20 00:35:18;;;;;;;10.82;4.82;;;6.90;99.90;;;;;;5046896;28;20049;-64
2022/10/20 00:37:43;;;;;;;7.30;4.43;;;6.90;99.90;;;;;;5022500;28;20044;-63
2022/10/20 00:40:09;;;;;;;11.52;4.95;;;6.80;99.90;;;;;;5047510;28;20467;-64
2022/10/20 00:42:35;;;;;;;8.90;4.40;;;6.80;99.90;;;;;;5046509;28;20502;-63
2022/10/20 00:45:01;;;;;;;7.32;4.30;;;6.90;99.90;;;;;;5040089;28;20037;-63
2022/10/20 00:47:49;;;;;;;7.68;4.47;;;6.80;99.90;;;;;;5044227;28;20052;-64
2022/10/20 00:50:20;;;;;;;7.43;4.68;;;6.80;99.90;;;;;;5051784;28;20037;-63
2022/10/20 00:52:46;;;;;;;;;;;6.80;99.90;;;;;;5048436;28;20346;-63
2022/10/20 00:55:15;;;;;;;10.35;4.38;;;6.80;99.90;;;;;;5046456;28;19936;-63
2022/10/20 00:57:46;;;;;;;7.15;4.53;;;6.70;99.90;;;;;;5042415;28;20481;-63
2022/10/20 01:00:12;;;;;;;9.48;4.72;;;6.80;99.90;;;;;;5028808;28;20063;-63
2022/10/20 01:02:38;;;;;;;9.35;4.93;;;6.80;99.90;;;;;;5028818;28;20132;-63
2022/10/20 01:05:05;;;;;;;8.70;5.40;;;6.80;99.90;;;;;;5044494;28;20090;-62
2022/10/20 01:07:30;;;;;;;9.32;4.57;;;6.80;99.90;;;;;;5027589;28;20053;-63
2022/10/20 01:09:56;;;;;;;9.80;4.93;;;6.80;99.90;;;;;;5043796;28;20051;-63
2022/10/20 01:12:30;;;;;;;8.55;4.57;;;6.90;99.90;;;;;;5043581;28;20041;-63
2022/10/20 01:15:13;;;;;;;6.32;4.25;;;6.80;99.90;;;;;;5046071;28;20065;-63
2022/10/20 01:18:13;;;;;;;12.15;4.32;;;6.80;99.90;;;;;;5040284;28;20098;-63
2022/10/20 01:20:39;;;;;;;11.60;5.10;;;6.80;99.90;;;;;;5018051;28;20071;-64
2022/10/20 01:23:42;;;;;;;10.38;4.57;;;6.80;99.90;;;;;;5024871;28;20045;-63
2022/10/20 01:26:33;;;;;;;10.13;4.55;;;6.80;99.90;;;;;;5029402;28;20052;-63
2022/10/20 01:29:14;;;;;;;10.50;4.43;;;6.80;99.90;;;;;;5040806;28;20055;-63
2022/10/20 01:31:43;;;;;;;;;;;6.80;99.90;;;;;;5019395;28;20106;-63
2022/10/20 01:34:31;;;;;;;8.90;4.35;;;6.80;99.90;;;;;;5028586;28;20062;-63
2022/10/20 01:37:22;;;;;;;11.55;4.82;;;6.80;99.90;;;;;;5024104;28;20529;-63
2022/10/20 01:39:52;;;;;;;10.25;4.20;;;6.80;99.90;;;;;;5043279;28;20037;-62
2022/10/20 01:42:23;;;;;;;9.88;4.38;;;6.80;99.90;;;;;;5040414;28;20427;-62
2022/10/20 01:44:51;;;;;;;12.50;5.78;;;6.80;99.90;;;;;;5042819;28;20487;-64
2022/10/20 01:47:18;;;;;;;11.45;5.10;;;6.70;99.90;;;;;;5025177;28;20480;-64
2022/10/20 01:49:47;;;;;;;13.80;5.63;;;6.70;99.90;;;;;;5027854;28;20143;-63
2022/10/20 01:52:12;;;;;;;9.75;5.50;;;6.70;99.90;;;;;;5047536;28;20049;-63
2022/10/20 01:54:38;;;;;;;13.38;5.65;;;6.70;99.90;;;;;;5024332;28;21076;-63
2022/10/20 01:57:41;;;;;;;11.48;5.15;;;6.60;99.90;;;;;;5039363;28;20033;-63
2022/10/20 02:00:12;;;;;;;9.18;4.95;;;6.60;99.90;;;;;;5043417;28;20483;-63
2022/10/20 02:03:14;;;;;;;11.52;4.97;;;6.50;99.90;;;;;;5045957;28;20045;-63
2022/10/20 02:06:10;;;;;;;8.88;5.22;;;6.40;99.90;;;;;;5041974;28;20048;-63
2022/10/20 02:08:47;;;;;;;10.82;5.53;;;6.40;99.90;;;;;;5043441;28;20443;-63
2022/10/20 02:11:25;;;;;;;8.50;5.40;;;6.40;99.90;;;;;;5043544;28;20074;-64
2022/10/20 02:13:51;;;;;;;11.40;5.50;;;6.40;99.90;;;;;;5025934;28;20084;-63
2022/10/20 02:16:24;;;;;;;13.32;5.68;;;6.40;99.90;;;;;;5039835;28;20037;-64
2022/10/20 02:18:50;;;;;;;10.20;5.78;;;6.40;99.90;;;;;;5043293;28;20037;-63
2022/10/20 02:21:16;;;;;;;14.85;5.88;;;6.40;99.90;;;;;;5044066;28;20037;-63
2022/10/20 02:23:46;;;;;;;10.68;5.50;;;6.40;99.90;;;;;;5046469;28;20056;-63
2022/10/20 02:26:17;;;;;;;13.63;6.60;;;6.40;99.90;;;;;;5026068;28;20049;-63
2022/10/20 02:28:47;;;;;;;9.65;6.20;;;6.40;99.90;;;;;;5024682;28;20049;-63
2022/10/20 02:31:13;;;;;;;11.15;5.78;;;6.40;99.90;;;;;;5041083;28;20037;-63
2022/10/20 02:33:39;;;;;;;16.95;8.52;;;6.40;99.90;;;;;;5027170;28;20045;-63
2022/10/20 02:36:12;;;;;;;10.98;6.05;;;6.40;99.90;;;;;;5046958;28;20400;-63
2022/10/20 02:38:38;;;;;;;10.75;6.10;;;6.40;99.90;;;;;;5044148;28;20069;-63
2022/10/20 02:41:03;;;;;;;10.38;6.05;;;6.40;99.90;;;;;;5040352;28;20068;-64
2022/10/20 02:43:29;;;;;;;14.68;6.07;;;6.40;99.90;;;;;;5044009;28;20044;-63
2022/10/20 02:45:54;;;;;;;13.68;7.10;;;6.40;99.90;;;;;;5040731;28;20497;-64
2022/10/20 02:48:20;;;;;;;12.18;6.22;;;6.40;99.90;;;;;;5040045;28;20465;-63
2022/10/20 02:50:45;;;;;;;15.60;6.95;;;6.40;99.90;;;;;;5044960;28;20539;-64
2022/10/20 02:53:11;;;;;;;10.43;6.25;;;6.40;99.90;;;;;;5011793;28;20037;-63
2022/10/20 02:55:36;;;;;;;12.25;5.80;;;6.40;99.90;;;;;;5028351;28;20044;-62
2022/10/20 02:58:02;;;;;;;13.30;6.88;;;6.40;99.90;;;;;;5042031;28;20037;-64
2022/10/20 03:00:29;;;;;;;12.02;7.30;;;6.40;99.90;;;;;;5039949;28;20087;-64
2022/10/20 03:02:55;;;;;;;11.52;6.70;;;6.50;99.90;;;;;;5027787;28;20192;-64
2022/10/20 03:05:21;;;;;;;13.02;7.53;;;6.40;99.90;;;;;;5046133;28;20493;-62
2022/10/20 03:07:47;;;;;;;15.15;7.13;;;6.40;99.90;;;;;;5044890;28;20154;-63
2022/10/20 03:10:12;;;;;;;13.90;7.53;;;6.50;99.90;;;;;;5043870;28;20043;-63
2022/10/20 03:12:38;;;;;;;17.20;7.03;;;6.50;99.90;;;;;;5039172;28;20046;-63
2022/10/20 03:15:04;;;;;;;15.27;7.18;;;6.50;99.90;;;;;;5037175;28;20116;-62
2022/10/20 03:17:30;;;;;;;12.05;7.00;;;6.50;99.90;;;;;;5044607;28;20372;-63
2022/10/20 03:19:55;;;;;;;12.70;7.10;;;6.50;99.90;;;;;;5041764;28;20041;-63
2022/10/20 03:22:21;;;;;;;16.48;7.03;;;6.50;99.90;;;;;;5045166;28;20036;-62
2022/10/20 03:24:46;;;;;;;13.80;7.22;;;6.40;99.90;;;;;;5045501;28;21931;-62
2022/10/20 03:27:13;;;;;;;11.50;7.30;;;6.40;99.90;;;;;;5040722;28;20042;-62
2022/10/20 03:29:38;;;;;;;17.80;8.20;;;6.40;99.90;;;;;;5039327;28;20094;-63
2022/10/20 03:32:04;;;;;;;13.70;7.68;;;6.50;99.90;;;;;;5043435;28;20354;-63
2022/10/20 03:34:30;;;;;;;18.23;8.43;;;6.40;99.90;;;;;;5044097;28;20437;-63
2022/10/20 03:36:55;;;;;;;16.65;8.40;;;6.40;99.90;;;;;;5050221;28;20033;-63
2022/10/20 03:39:21;;;;;;;13.73;7.95;;;6.40;99.90;;;;;;5030811;28;20075;-63
2022/10/20 03:41:46;;;;;;;12.75;7.50;;;6.40;99.90;;;;;;5045781;28;20125;-62
2022/10/20 03:44:12;;;;;;;14.13;7.68;;;6.40;99.90;;;;;;5028219;28;20460;-63
2022/10/20 03:46:37;;;;;;;14.32;8.48;;;6.30;99.90;;;;;;5046600;28;20041;-63
2022/10/20 03:49:03;;;;;;;14.23;8.80;;;6.30;99.90;;;;;;5027812;28;20469;-63
2022/10/20 03:51:28;;;;;;;15.25;8.32;;;6.20;99.90;;;;;;5050434;28;20052;-63
2022/10/20 03:53:54;;;;;;;13.88;8.45;;;6.20;99.90;;;;;;5050351;28;20123;-63
2022/10/20 03:56:20;;;;;;;14.95;8.75;;;6.10;99.90;;;;;;5031420;28;20033;-63
2022/10/20 03:58:47;;;;;;;19.42;9.10;;;6.20;99.90;;;;;;5043406;28;20353;-62
2022/10/20 04:01:15;;;;;;;17.35;8.65;;;6.30;99.90;;;;;;5027562;28;20086;-63
2022/10/20 04:03:41;;;;;;;16.58;8.70;;;6.30;99.90;;;;;;5030496;28;20439;-63
2022/10/20 04:06:07;;;;;;;17.40;9.45;;;6.40;99.90;;;;;;5021209;28;20116;-63
2022/10/20 04:08:32;;;;;;;16.75;8.88;;;6.40;99.90;;;;;;5044577;28;20531;-63
2022/10/20 04:10:58;;;;;;;17.52;8.95;;;6.40;99.90;;;;;;5029720;28;20048;-63
2022/10/20 04:13:23;;;;;;;13.73;8.75;;;6.40;99.90;;;;;;5049184;28;20456;-63
2022/10/20 04:15:49;;;;;;;18.85;9.18;;;6.30;99.90;;;;;;5024868;28;20468;-64
2022/10/20 04:18:15;;;;;;;13.27;8.73;;;6.30;99.90;;;;;;5046453;28;22337;-63
2022/10/20 04:20:40;;;;;;;18.65;9.13;;;6.30;99.90;;;;;;5030205;28;20037;-65
2022/10/20 04:23:06;;;;;;;16.15;9.02;;;6.30;99.90;;;;;;5034291;28;20037;-65
2022/10/20 04:25:31;;;;;;;18.20;10.27;;;6.30;99.90;;;;;;5031534;28;20044;-63
2022/10/20 04:27:58;;;;;;;21.95;11.65;;;6.30;99.90;;;;;;5045830;28;20064;-63
2022/10/20 04:30:24;;;;;;;22.30;10.52;;;6.30;99.90;;;;;;5035941;28;20044;-67
2022/10/20 04:32:50;;;;;;;17.58;8.88;;;6.30;99.90;;;;;;5031976;28;20051;-63
2022/10/20 04:35:15;;;;;;;17.02;9.45;;;6.30;99.90;;;;;;5044368;28;20144;-63
2022/10/20 04:37:41;;;;;;;19.98;10.38;;;6.30;99.90;;;;;;5045406;28;20467;-65
2022/10/20 04:40:07;;;;;;;19.70;10.45;;;6.30;99.90;;;;;;5040759;28;20061;-63
2022/10/20 04:42:33;;;;;;;17.25;10.15;;;6.30;99.90;;;;;;5046544;28;20040;-63
2022/10/20 04:44:58;;;;;;;19.42;10.00;;;6.30;99.90;;;;;;5042839;28;20115;-63
2022/10/20 04:47:24;;;;;;;17.05;10.15;;;6.30;99.90;;;;;;5044002;28;20433;-64
2022/10/20 04:49:49;;;;;;;17.27;10.10;;;6.30;99.90;;;;;;5046940;28;22175;-63
2022/10/20 04:52:16;;;;;;;19.40;10.45;;;6.20;99.90;;;;;;5038699;28;20389;-63
2022/10/20 04:54:41;;;;;;;16.23;10.20;;;6.20;99.90;;;;;;5027769;28;20098;-63
2022/10/20 04:57:08;;;;;;;17.50;10.02;;;6.20;99.90;;;;;;5044892;28;20045;-63
2022/10/20 04:59:34;;;;;;;22.00;11.05;;;6.20;99.90;;;;;;5044960;28;20380;-63
2022/10/20 05:01:59;;;;;;;23.77;11.20;;;6.20;99.90;;;;;;5046179;28;20056;-63
2022/10/20 05:04:25;;;;;;;19.75;11.38;;;6.20;99.90;;;;;;5046645;28;20041;-63
2022/10/20 05:06:51;;;;;;;19.17;10.38;;;6.20;99.90;;;;;;5043042;28;20220;-63
2022/10/20 05:09:16;;;;;;;20.10;11.25;;;6.20;99.90;;;;;;5044866;28;20463;-63
2022/10/20 05:11:42;;;;;;;18.40;10.93;;;6.20;99.90;;;;;;5043486;28;20037;-63
2022/10/20 05:14:08;;;;;;;19.67;11.10;;;6.30;99.90;;;;;;5043730;28;20044;-64
2022/10/20 05:16:34;;;;;;;20.92;11.55;;;6.20;99.90;;;;;;5026192;28;20045;-63
2022/10/20 05:18:59;;;;;;;20.60;11.70;;;6.20;99.90;;;;;;5043350;28;20040;-63
2022/10/20 05:21:28;;;;;;;23.80;11.30;;;6.30;99.90;;;;;;5027937;28;20473;-64
2022/10/20 05:23:56;;;;;;;20.23;11.45;;;6.20;99.90;;;;;;5028572;28;20084;-63
2022/10/20 05:26:22;;;;;;;19.60;11.95;;;6.20;99.90;;;;;;5026368;28;20049;-62
2022/10/20 05:28:49;;;;;;;20.40;11.30;;;6.20;99.90;;;;;;5045729;28;20076;-63
2022/10/20 05:31:16;;;;;;;21.98;11.88;;;6.20;99.90;;;;;;5043412;28;20040;-63
2022/10/20 05:33:46;;;;;;;20.48;11.10;;;6.20;99.90;;;;;;5027184;28;20136;-63
2022/10/20 05:36:14;;;;;;;18.48;11.32;;;6.10;99.90;;;;;;5043407;28;20448;-63
2022/10/20 05:38:40;;;;;;;17.63;12.02;;;6.10;99.90;;;;;;5040593;28;20035;-63
2022/10/20 05:41:11;;;;;;;20.85;12.27;;;6.10;99.90;;;;;;5022283;28;20124;-63
2022/10/20 05:43:37;;;;;;;21.67;12.10;;;6.10;99.90;;;;;;5046657;28;20127;-63
2022/10/20 05:46:04;;;;;;;21.50;11.38;;;6.10;99.90;;;;;;5041547;28;20136;-63
2022/10/20 05:48:30;;;;;;;22.80;12.13;;;6.10;99.90;;;;;;5043958;28;20041;-64
2022/10/20 05:51:06;;;;;;;19.20;11.80;;;6.10;99.90;;;;;;5025603;28;20041;-64
2022/10/20 05:53:31;;;;;;;21.42;11.60;;;6.10;99.90;;;;;;5019261;28;20045;-63
2022/10/20 05:56:05;;;;;;;21.58;12.05;;;6.10;99.90;;;;;;5044012;28;20086;-63
2022/10/20 05:58:31;;;;;;;23.95;12.38;;;6.10;99.90;;;;;;5043418;28;20092;-64
2022/10/20 06:01:22;;;;;;;22.42;12.45;;;6.10;99.90;;;;;;5041552;28;20085;-63
2022/10/20 06:03:55;;;;;;;19.08;12.00;;;6.10;99.90;;;;;;5024983;28;20041;-63
2022/10/20 06:06:24;;;;;;;19.30;11.63;;;6.10;99.90;;;;;;5019287;28;20042;-64
2022/10/20 06:08:50;;;;;;;21.08;12.48;;;6.00;99.90;;;;;;5026761;28;20045;-62
2022/10/20 06:11:17;;;;;;;23.70;12.23;;;6.00;99.90;;;;;;5044840;28;20063;-63
2022/10/20 06:13:43;;;;;;;22.35;12.40;;;6.00;99.90;;;;;;5039565;28;20174;-63
2022/10/20 06:16:14;;;;;;;24.10;13.60;;;6.00;99.90;;;;;;5026921;28;20127;-63
2022/10/20 06:18:43;;;;;;;21.05;12.23;;;5.90;99.90;;;;;;5042077;28;20089;-64
2022/10/20 06:21:12;;;;;;;25.92;13.10;;;6.00;99.90;;;;;;5027938;28;20041;-63
2022/10/20 06:23:37;;;;;;;26.13;13.43;;;5.90;99.90;;;;;;5044880;28;20120;-64
2022/10/20 06:26:09;;;;;;;24.92;12.02;;;5.90;99.90;;;;;;5041952;28;20167;-64
2022/10/20 06:28:36;;;;;;;22.27;12.25;;;5.90;99.90;;;;;;5028204;28;20059;-63
2022/10/20 06:31:15;;;;;;;23.38;12.95;;;5.90;99.90;;;;;;5043750;28;20057;-63
2022/10/20 06:33:41;;;;;;;17.40;10.13;;;5.90;99.90;;;;;;5046547;28;20121;-63
2022/10/20 06:36:07;;;;;;;21.58;12.35;;;5.90;99.90;;;;;;5034762;28;20056;-63
2022/10/20 06:38:33;;;;;;;23.98;11.02;;;5.90;99.90;;;;;;5027257;28;20037;-62
2022/10/20 06:41:03;;;;;;;21.17;12.10;;;6.00;99.90;;;;;;5046887;28;20104;-63
2022/10/20 06:43:29;;;;;;;22.63;12.63;;;6.00;99.90;;;;;;5043923;28;20087;-63
2022/10/20 06:45:59;;;;;;;24.67;13.88;;;6.10;99.90;;;;;;5042271;28;20071;-63
2022/10/20 06:48:25;;;;;;;23.30;12.05;;;6.10;99.90;;;;;;5047114;28;20445;-63
2022/10/20 06:50:58;;;;;;;24.23;13.18;;;6.20;99.90;;;;;;5045566;28;20033;-64
2022/10/20 06:53:24;;;;;;;22.02;12.93;;;6.20;99.90;;;;;;5018928;28;20128;-63
2022/10/20 06:56:09;;;;;;;21.77;12.13;;;6.30;99.90;;;;;;5043910;28;20112;-63
2022/10/20 06:58:36;;;;;;;24.88;13.18;;;6.40;99.90;;;;;;5040638;28;20037;-63
2022/10/20 07:01:05;;;;;;;24.55;13.10;;;6.40;99.90;;;;;;5037330;28;20076;-63
2022/10/20 07:03:32;;;;;;;24.00;12.02;;;6.50;99.90;;;;;;5040707;28;20069;-63
2022/10/20 07:05:58;;;;;;;22.27;12.30;;;6.50;99.90;;;;;;5039606;28;20086;-65
2022/10/20 07:08:27;;;;;;;22.33;12.60;;;6.50;99.90;;;;;;5027502;28;20037;-63
2022/10/20 07:10:59;;;;;;;21.35;13.10;;;6.60;99.90;;;;;;5049273;28;20102;-63
2022/10/20 07:13:24;;;;;;;21.42;12.20;;;6.70;99.90;;;;;;5029653;28;20045;-64
2022/10/20 07:15:53;;;;;;;21.42;12.70;;;6.80;99.90;;;;;;5018765;28;20483;-64
2022/10/20 07:18:20;;;;;;;21.08;11.50;;;6.80;99.90;;;;;;5046089;28;20147;-63
2022/10/20 07:20:45;;;;;;;23.80;14.25;;;6.90;99.90;;;;;;5024994;28;20034;-63
2022/10/20 07:23:11;;;;;;;20.08;11.73;;;7.00;99.90;;;;;;5040394;28;20041;-63
2022/10/20 07:25:36;;;;;;;22.48;11.90;;;7.10;99.90;;;;;;5036177;28;20445;-63
2022/10/20 07:28:02;;;;;;;21.23;11.80;;;7.10;99.90;;;;;;5038592;28;20409;-64
2022/10/20 07:30:27;;;;;;;20.73;12.13;;;7.20;99.90;;;;;;5036567;28;20045;-62
2022/10/20 07:32:53;;;;;;;20.63;11.90;;;7.20;99.90;;;;;;5033404;28;20128;-62
2022/10/20 07:35:19;;;;;;;19.35;11.60;;;7.30;99.90;;;;;;5040532;28;96497;-64
2022/10/20 07:37:44;;;;;;;17.45;11.10;;;7.40;99.90;;;;;;5022653;28;20056;-64
2022/10/20 07:40:10;;;;;;;23.73;11.38;;;7.40;99.90;;;;;;5041911;28;20521;-65
2022/10/20 07:42:36;;;;;;;20.42;11.27;;;7.40;99.90;;;;;;5053172;28;20044;-63
2022/10/20 07:45:01;;;;;;;20.40;12.43;;;7.40;99.90;;;;;;5047690;28;20037;-63
2022/10/20 07:47:27;;;;;;;17.35;11.43;;;7.40;99.90;;;;;;5060537;28;20033;-63
2022/10/20 07:49:53;;;;;;;19.90;11.90;;;7.50;99.90;;;;;;5065025;28;20037;-63
2022/10/20 07:52:18;;;;;;;16.60;10.40;;;7.50;99.90;;;;;;5066098;28;20059;-64
2022/10/20 07:54:44;;;;;;;18.60;11.52;;;7.50;99.90;;;;;;5049808;28;20037;-62
2022/10/20 07:57:10;;;;;;;21.80;11.35;;;7.50;99.90;;;;;;5024223;28;20041;-63
2022/10/20 07:59:35;;;;;;;18.88;10.73;;;7.50;99.90;;;;;;5029264;28;20126;-63
2022/10/20 08:02:01;;;;;;;17.90;10.80;;;7.60;99.90;;;;;;5037680;28;20481;-63
2022/10/20 08:04:30;;;;;;;22.02;11.43;;;7.70;99.90;;;;;;5040112;28;20066;-63
2022/10/20 08:06:56;;;;;;;17.27;9.73;;;7.70;99.90;;;;;;5047815;28;20109;-63
2022/10/20 08:09:22;;;;;;;18.17;10.82;;;7.80;99.90;;;;;;5029891;28;20107;-62
2022/10/20 08:11:47;;;;;;;17.98;10.88;;;7.90;99.90;;;;;;5050612;28;20053;-63
2022/10/20 08:14:13;;;;;;;16.10;9.93;;;7.90;99.90;;;;;;5030613;28;20484;-63
2022/10/20 08:16:38;;;;;;;16.25;10.18;;;8.00;99.90;;;;;;5051002;28;20388;-63
2022/10/20 08:19:04;;;;;;;16.58;10.13;;;8.10;99.90;;;;;;5032899;28;20033;-63
2022/10/20 08:21:30;;;;;;;18.20;10.20;;;8.20;99.90;;;;;;5033769;28;20124;-63
2022/10/20 08:23:55;;;;;;;18.88;10.75;;;8.20;99.90;;;;;;5050926;28;20044;-63
2022/10/20 08:26:23;;;;;;;21.02;10.15;;;8.40;99.90;;;;;;5032131;28;20051;-63
2022/10/20 08:28:51;;;;;;;15.18;9.38;;;8.50;99.90;;;;;;5045192;28;20110;-62
2022/10/20 08:31:17;;;;;;;14.02;9.90;;;8.60;99.90;;;;;;5024139;28;20045;-63
2022/10/20 08:33:43;;;;;;;16.60;9.77;;;8.60;99.90;;;;;;5045537;28;20044;-63
2022/10/20 08:36:11;;;;;;;15.95;9.55;;;8.70;99.90;;;;;;5031584;28;20059;-63
2022/10/20 08:38:38;;;;;;;16.65;10.70;;;8.70;99.90;;;;;;5050214;28;20041;-65
2022/10/20 08:41:10;;;;;;;14.40;9.52;;;8.70;99.90;;;;;;5049144;28;20116;-64
2022/10/20 08:43:40;;;;;;;16.27;8.82;;;8.80;99.90;;;;;;5048492;28;20045;-64
2022/10/20 08:46:10;;;;;;;16.05;10.00;;;8.80;99.90;;;;;;5029968;28;20132;-63
2022/10/20 08:48:35;;;;;;;15.30;8.85;;;8.80;99.90;;;;;;5049186;28;20127;-62
2022/10/20 08:51:01;;;;;;;14.57;9.70;;;8.90;99.90;;;;;;5050636;28;20120;-62
2022/10/20 08:53:29;;;;;;;16.42;10.48;;;8.90;99.90;;;;;;5048284;28;20461;-63
2022/10/20 08:55:55;;;;;;;16.55;9.18;;;9.00;99.90;;;;;;5049689;28;20040;-63
2022/10/20 08:58:23;;;;;;;16.13;9.35;;;9.10;99.90;;;;;;5050159;28;20041;-63
2022/10/20 09:00:58;;;;;;;15.43;9.07;;;9.10;99.90;;;;;;5027770;28;20093;-63
2022/10/20 09:03:32;;;;;;;14.77;9.55;;;9.10;99.90;;;;;;5047446;28;20048;-64
2022/10/20 09:06:06;;;;;;;16.88;8.60;;;9.20;99.90;;;;;;5049176;28;20045;-63
2022/10/20 09:08:36;;;;;;;14.52;9.30;;;9.30;99.90;;;;;;5032119;28;20037;-64
2022/10/20 09:11:03;;;;;;;17.05;9.80;;;9.30;99.90;;;;;;5049345;28;20475;-63
2022/10/20 09:13:31;;;;;;;13.80;8.65;;;9.40;99.90;;;;;;5046341;28;20330;-62
2022/10/20 09:16:03;;;;;;;13.55;8.85;;;9.50;99.90;;;;;;5022075;28;20071;-63
2022/10/20 09:18:30;;;;;;;14.25;8.45;;;9.60;99.90;;;;;;5043050;28;20036;-64
2022/10/20 09:21:20;;;;;;;14.55;9.68;;;9.70;99.90;;;;;;5053725;28;20337;-64
2022/10/20 09:23:51;;;;;;;14.27;8.93;;;9.90;99.90;;;;;;5058713;28;20459;-65
2022/10/20 09:26:22;;;;;;;16.80;8.75;;;10.00;99.90;;;;;;5054945;28;20040;-65
2022/10/20 09:28:50;;;;;;;10.55;8.05;;;10.00;99.90;;;;;;5066905;28;20112;-64
2022/10/20 09:31:46;;;;;;;12.63;8.65;;;10.20;99.90;;;;;;5031924;28;20040;-64
2022/10/20 09:34:34;;;;;;;16.95;8.95;;;10.20;99.90;;;;;;5034630;28;20108;-64
2022/10/20 09:37:05;;;;;;;12.43;7.90;;;10.30;99.90;;;;;;5041360;28;20521;-64
2022/10/20 09:39:41;;;;;;;15.50;8.13;;;10.40;99.90;;;;;;5039699;28;20041;-64
2022/10/20 09:42:22;;;;;;;12.50;7.95;;;10.40;99.90;;;;;;5048115;28;20052;-64
2022/10/20 09:44:55;;;;;;;12.32;7.95;;;10.40;99.90;;;;;;5056043;28;20830;-63
2022/10/20 09:47:22;;;;;;;10.35;7.60;;;10.40;99.90;;;;;;5037515;28;20060;-63
2022/10/20 09:50:03;;;;;;;12.00;7.70;;;10.50;99.90;;;;;;5049565;28;20331;-64
2022/10/20 09:52:33;;;;;;;10.40;7.40;;;10.50;99.90;;;;;;5051528;28;20460;-64
2022/10/20 09:55:02;;;;;;;10.52;7.18;;;10.60;99.90;;;;;;5041269;28;20508;-64
2022/10/20 09:57:29;;;;;;;12.40;7.67;;;10.70;99.90;;;;;;5042672;28;20029;-63
2022/10/20 09:59:56;;;;;;;10.85;7.13;;;10.80;99.90;;;;;;5026005;28;20300;-65
2022/10/20 10:02:21;;;;;;;13.35;7.50;;;10.80;99.90;;;;;;5044749;28;20047;-64
2022/10/20 10:04:49;;;;;;;10.45;7.53;;;10.80;99.90;;;;;;5043966;28;20755;-63
2022/10/20 10:07:21;;;;;;;14.48;8.10;;;10.90;99.90;;;;;;5054072;28;20052;-64
2022/10/20 10:10:22;;;;;;;10.52;6.57;;;10.90;99.90;;;;;;5031480;28;20122;-65
2022/10/20 10:12:56;;;;;;;10.27;6.97;;;10.90;99.90;;;;;;5035986;28;20106;-65
2022/10/20 10:15:21;;;;;;;10.40;7.18;;;11.00;99.90;;;;;;5035743;28;20041;-64
2022/10/20 10:17:49;;;;;;;9.70;7.20;;;11.10;99.90;;;;;;5048563;28;20039;-63
2022/10/20 10:20:15;;;;;;;9.65;6.90;;;11.10;99.90;;;;;;5057887;28;20496;-64
2022/10/20 10:22:42;;;;;;;12.32;7.68;;;11.10;99.90;;;;;;5054241;28;20543;-64
2022/10/20 10:25:24;;;;;;;9.40;7.05;;;11.10;99.90;;;;;;5039156;28;20048;-64
2022/10/20 10:27:59;;;;;;;9.80;6.88;;;11.20;99.90;;;;;;5026674;28;20076;-64
2022/10/20 10:30:29;;;;;;;11.98;7.30;;;11.20;99.90;;;;;;5045030;28;20041;-64
2022/10/20 10:32:55;;;;;;;11.23;7.07;;;11.30;99.90;;;;;;5047494;28;20037;-64
2022/10/20 10:35:26;;;;;;;10.77;7.00;;;11.40;99.90;;;;;;5066613;28;20056;-62
2022/10/20 10:37:52;;;;;;;10.60;7.05;;;11.50;99.90;;;;;;5044970;28;20045;-64
2022/10/20 10:40:23;;;;;;;13.15;7.63;;;11.70;99.90;;;;;;5047347;28;20043;-64
2022/10/20 10:43:28;;;;;;;12.90;7.47;;;11.90;99.90;;;;;;5041100;28;20029;-64
2022/10/20 10:45:59;;;;;;;9.35;7.45;;;12.10;99.90;;;;;;5041896;28;20179;-64
2022/10/20 10:48:33;;;;;;;10.48;7.45;;;12.20;99.90;;;;;;5022380;28;20124;-64
2022/10/20 10:51:04;;;;;;;10.30;7.72;;;12.30;99.90;;;;;;5030801;28;20049;-64
2022/10/20 10:53:41;;;;;;;;;;;12.30;99.90;;;;;;5027219;28;20041;-64
2022/10/20 10:56:22;;;;;;;10.52;7.03;;;12.30;99.90;;;;;;5045321;28;19924;-65
2022/10/20 10:59:23;;;;;;;13.00;7.00;;;12.30;99.90;;;;;;5044370;28;20084;-65
2022/10/20 11:01:51;;;;;;;9.52;7.18;;;12.50;99.90;;;;;;5035642;28;20057;-65
2022/10/20 11:04:39;;;;;;;11.13;7.40;;;12.40;99.90;;;;;;5013796;28;20055;-65
2022/10/20 11:07:26;;;;;;;10.95;7.35;;;12.40;99.90;;;;;;5002712;28;20049;-64
2022/10/20 11:10:12;;;;;;;10.55;7.10;;;12.40;99.90;;;;;;5039979;28;20045;-64
2022/10/20 11:12:57;;;;;;;10.10;7.18;;;12.30;99.90;;;;;;5039457;28;20459;-64
2022/10/20 11:15:57;;;;;;;10.82;7.68;;;12.30;99.90;;;;;;5044439;28;20095;-64
2022/10/20 11:19:02;;;;;;;11.93;7.32;;;12.40;99.90;;;;;;5018596;28;20040;-64
2022/10/20 11:21:33;;;;;;;12.25;6.90;;;12.50;99.90;;;;;;5011681;28;20069;-65
2022/10/20 11:24:13;;;;;;;13.27;7.50;;;12.60;99.90;;;;;;5029257;28;20049;-64
2022/10/20 11:26:51;;;;;;;13.15;7.55;;;12.60;99.90;;;;;;5047960;28;20099;-64
2022/10/20 11:29:39;;;;;;;9.05;7.00;;;12.70;99.90;;;;;;5046648;28;20055;-65
2022/10/20 11:32:08;;;;;;;9.88;7.38;;;12.70;99.90;;;;;;5023293;28;20404;-65
2022/10/20 11:35:00;;;;;;;13.70;8.05;;;12.80;99.90;;;;;;5030619;28;20045;-65
2022/10/20 11:37:29;;;;;;;13.18;7.63;;;12.70;99.90;;;;;;5045982;28;20120;-65
2022/10/20 11:40:09;;;;;;;10.53;7.50;;;12.80;99.90;;;;;;5046368;28;20063;-64
2022/10/20 11:42:48;;;;;;;11.77;8.30;;;12.70;99.90;;;;;;5046347;28;20318;-65
2022/10/20 11:45:23;;;;;;;12.98;7.78;;;12.70;99.90;;;;;;5030229;28;20040;-64
2022/10/20 11:47:55;;;;;;;12.73;8.23;;;12.70;99.90;;;;;;5048146;28;20033;-63
2022/10/20 11:50:21;;;;;;;9.95;7.47;;;12.70;99.90;;;;;;5018568;28;20061;-64
2022/10/20 11:53:05;;;;;;;10.65;8.00;;;12.80;99.90;;;;;;5030379;28;20136;-64
2022/10/20 11:55:38;;;;;;;15.40;8.43;;;12.80;99.90;;;;;;5028932;28;20055;-64
2022/10/20 11:58:13;;;;;;;11.57;8.27;;;12.80;99.90;;;;;;5050952;28;20118;-63
2022/10/20 12:00:47;;;;;;;12.05;7.57;;;12.90;99.90;;;;;;5015182;28;20044;-63
2022/10/20 12:03:32;;;;;;;11.57;8.40;;;13.00;99.90;;;;;;5032843;28;20123;-64
2022/10/20 12:06:13;;;;;;;14.13;7.95;;;13.00;99.90;;;;;;5048905;28;20404;-63
2022/10/20 12:08:42;;;;;;;12.52;8.25;;;13.10;99.90;;;;;;5027865;28;20116;-63
2022/10/20 12:11:31;;;;;;;13.02;8.95;;;13.00;99.90;;;;;;5027958;28;20094;-65
2022/10/20 12:14:17;;;;;;;13.95;8.32;;;13.00;99.90;;;;;;5050769;28;20067;-64
2022/10/20 12:16:57;;;;;;;10.05;7.80;;;13.10;99.90;;;;;;5027971;28;20033;-65
2022/10/20 12:19:27;;;;;;;12.05;8.35;;;13.10;99.90;;;;;;5031536;28;20124;-63
2022/10/20 12:22:25;;;;;;;11.60;8.52;;;13.10;99.90;;;;;;5042638;28;20032;-65
2022/10/20 12:24:51;;;;;;;12.20;8.52;;;13.10;99.90;;;;;;5017081;28;20412;-64
2022/10/20 12:27:18;;;;;;;11.50;8.10;;;13.00;99.90;;;;;;5029967;28;20041;-64
2022/10/20 12:29:45;;;;;;;16.92;9.18;;;13.00;99.90;;;;;;5034649;28;20037;-64
2022/10/20 12:32:36;;;;;;;13.27;8.15;;;12.90;99.90;;;;;;5031917;28;20076;-63
2022/10/20 12:35:11;;;;;;;12.35;8.52;;;13.00;99.90;;;;;;5049271;28;20084;-64
2022/10/20 12:37:38;;;;;;;11.88;8.85;;;13.00;99.90;;;;;;5050872;28;20048;-64
2022/10/20 12:40:06;;;;;;;12.48;8.98;;;13.00;99.90;;;;;;5031118;28;20040;-65
2022/10/20 12:42:45;;;;;;;21.40;8.60;;;12.90;99.90;;;;;;5048266;28;20037;-64
2022/10/20 12:45:17;;;;;;;14.68;9.00;;;12.90;99.90;;;;;;5049170;28;20037;-64
2022/10/20 12:47:48;;;;;;;17.17;10.00;;;12.80;99.90;;;;;;5015861;28;20040;-64
2022/10/20 12:50:32;;;;;;;13.65;9.40;;;12.70;99.90;;;;;;5014564;28;20048;-64
2022/10/20 12:53:09;;;;;;;13.73;9.43;;;12.60;99.90;;;;;;5047570;28;20049;-64
2022/10/20 12:55:37;;;;;;;18.17;10.65;;;12.50;99.90;;;;;;5021747;28;20049;-64
2022/10/20 12:58:17;;;;;;;15.15;10.35;;;12.30;99.90;;;;;;5049940;28;20112;-64
2022/10/20 13:00:45;;;;;;;14.52;9.77;;;12.10;99.90;;;;;;5046379;28;20037;-64